sensor_id;sensor_type;location;lat;lon;timestamp;P1;durP1;ratioP1;P2;durP2;ratioP2
26038;SDS011;13815;52.374;4.882;2023-09-07T00:00:13;0.40;;;0.40;;
26038;SDS011;13815;52.374;4.882;2023-09-07T00:02:42;0.30;;;0.30;;
26038;SDS011;13815;52.374;4.882;2023-09-07T00:05:08;0.30;;;0.30;;
26038;SDS011;13815;52.374;4.882;2023-09-07T00:07:34;0.40;;;0.40;;
26038;SDS011;13815;52.374;4.882;2023-09-07T00:10:00;0.40;;;0.40;;
26038;SDS011;13815;52.374;4.882;2023-09-07T00:12:26;0.40;;;0.40;;
26038;SDS011;13815;52.374;4.882;2023-09-07T00:14:54;0.40;;;0.40;;
26038;SDS011;13815;52.374;4.882;2023-09-07T00:17:20;0.40;;;0.40;;
26038;SDS011;13815;52.374;4.882;2023-09-07T00:19:46;0.30;;;0.30;;
26038;SDS011;13815;52.374;4.882;2023-09-07T00:22:16;0.30;;;0.30;;
26038;SDS011;13815;52.374;4.882;2023-09-07T00:24:42;0.40;;;0.40;;
26038;SDS011;13815;52.374;4.882;2023-09-07T00:27:07;0.30;;;0.30;;
26038;SDS011;13815;52.374;4.882;2023-09-07T00:29:35;0.25;;;0.25;;
26038;SDS011;13815;52.374;4.882;2023-09-07T00:32:01;0.20;;;0.20;;
26038;SDS011;13815;52.374;4.882;2023-09-07T00:34:26;0.20;;;0.20;;
26038;SDS011;13815;52.374;4.882;2023-09-07T00:36:52;0.10;;;0.10;;
26038;SDS011;13815;52.374;4.882;2023-09-07T00:39:17;0.10;;;0.10;;
26038;SDS011;13815;52.374;4.882;2023-09-07T00:41:43;0.10;;;0.10;;
26038;SDS011;13815;52.374;4.882;2023-09-07T00:44:08;0.10;;;0.10;;
26038;SDS011;13815;52.374;4.882;2023-09-07T00:46:34;0.10;;;0.10;;
26038;SDS011;13815;52.374;4.882;2023-09-07T00:48:59;0.10;;;0.10;;
26038;SDS011;13815;52.374;4.882;2023-09-07T00:51:25;0.00;;;0.00;;
26038;SDS011;13815;52.374;4.882;2023-09-07T00:53:50;0.05;;;0.05;;
26038;SDS011;13815;52.374;4.882;2023-09-07T00:56:16;0.10;;;0.10;;
26038;SDS011;13815;52.374;4.882;2023-09-07T00:58:41;0.10;;;0.10;;
26038;SDS011;13815;52.374;4.882;2023-09-07T01:01:08;0.10;;;0.10;;
26038;SDS011;13815;52.374;4.882;2023-09-07T01:03:34;0.10;;;0.10;;
26038;SDS011;13815;52.374;4.882;2023-09-07T01:06:01;0.10;;;0.10;;
26038;SDS011;13815;52.374;4.882;2023-09-07T01:08:31;0.10;;;0.10;;
26038;SDS011;13815;52.374;4.882;2023-09-07T01:11:01;0.10;;;0.10;;
26038;SDS011;13815;52.374;4.882;2023-09-07T01:13:38;0.10;;;0.10;;
26038;SDS011;13815;52.374;4.882;2023-09-07T01:16:03;0.10;;;0.10;;
26038;SDS011;13815;52.374;4.882;2023-09-07T01:18:32;0.10;;;0.10;;
26038;SDS011;13815;52.374;4.882;2023-09-07T01:20:57;0.10;;;0.10;;
26038;SDS011;13815;52.374;4.882;2023-09-07T01:23:23;0.10;;;0.10;;
26038;SDS011;13815;52.374;4.882;2023-09-07T01:25:49;0.10;;;0.10;;
26038;SDS011;13815;52.374;4.882;2023-09-07T01:28:15;0.10;;;0.10;;
26038;SDS011;13815;52.374;4.882;2023-09-07T01:30:40;0.10;;;0.10;;
26038;SDS011;13815;52.374;4.882;2023-09-07T01:33:06;0.17;;;0.17;;
26038;SDS011;13815;52.374;4.882;2023-09-07T01:35:33;0.20;;;0.20;;
26038;SDS011;13815;52.374;4.882;2023-09-07T01:37:59;0.20;;;0.20;;
26038;SDS011;13815;52.374;4.882;2023-09-07T01:40:25;0.20;;;0.20;;
26038;SDS011;13815;52.374;4.882;2023-09-07T01:42:50;0.20;;;0.20;;
26038;SDS011;13815;52.374;4.882;2023-09-07T01:45:18;0.20;;;0.20;;
26038;SDS011;13815;52.374;4.882;2023-09-07T01:47:44;0.20;;;0.20;;
26038;SDS011;13815;52.374;4.882;2023-09-07T01:50:10;0.10;;;0.10;;
26038;SDS011;13815;52.374;4.882;2023-09-07T01:52:35;0.10;;;0.10;;
26038;SDS011;13815;52.374;4.882;2023-09-07T01:55:00;0.10;;;0.10;;
26038;SDS011;13815;52.374;4.882;2023-09-07T01:57:26;0.10;;;0.10;;
26038;SDS011;13815;52.374;4.882;2023-09-07T01:59:52;0.10;;;0.10;;
26038;SDS011;13815;52.374;4.882;2023-09-07T02:02:17;0.00;;;0.00;;
26038;SDS011;13815;52.374;4.882;2023-09-07T02:04:42;0.00;;;0.00;;
26038;SDS011;13815;52.374;4.882;2023-09-07T02:07:11;0.00;;;0.00;;
26038;SDS011;13815;52.374;4.882;2023-09-07T02:09:37;0.00;;;0.00;;
26038;SDS011;13815;52.374;4.882;2023-09-07T02:12:03;0.00;;;0.00;;
26038;SDS011;13815;52.374;4.882;2023-09-07T02:14:29;0.00;;;0.00;;
26038;SDS011;13815;52.374;4.882;2023-09-07T02:16:55;0.00;;;0.00;;
26038;SDS011;13815;52.374;4.882;2023-09-07T02:19:20;0.00;;;0.00;;
26038;SDS011;13815;52.374;4.882;2023-09-07T02:21:47;0.00;;;0.00;;
26038;SDS011;13815;52.374;4.882;2023-09-07T02:24:13;0.00;;;0.00;;
26038;SDS011;13815;52.374;4.882;2023-09-07T02:26:38;0.00;;;0.00;;
26038;SDS011;13815;52.374;4.882;2023-09-07T02:29:08;0.00;;;0.00;;
26038;SDS011;13815;52.374;4.882;2023-09-07T02:31:36;0.00;;;0.00;;
26038;SDS011;13815;52.374;4.882;2023-09-07T02:34:02;0.00;;;0.00;;
26038;SDS011;13815;52.374;4.882;2023-09-07T02:36:28;0.00;;;0.00;;
26038;SDS011;13815;52.374;4.882;2023-09-07T02:38:54;0.00;;;0.00;;
26038;SDS011;13815;52.374;4.882;2023-09-07T02:41:19;0.00;;;0.00;;
26038;SDS011;13815;52.374;4.882;2023-09-07T02:43:45;0.00;;;0.00;;
26038;SDS011;13815;52.374;4.882;2023-09-07T02:46:10;0.00;;;0.00;;
26038;SDS011;13815;52.374;4.882;2023-09-07T02:48:35;0.00;;;0.00;;
26038;SDS011;13815;52.374;4.882;2023-09-07T02:51:01;0.00;;;0.00;;
26038;SDS011;13815;52.374;4.882;2023-09-07T02:53:26;0.00;;;0.00;;
26038;SDS011;13815;52.374;4.882;2023-09-07T02:55:52;0.00;;;0.00;;
26038;SDS011;13815;52.374;4.882;2023-09-07T02:58:17;0.00;;;0.00;;
26038;SDS011;13815;52.374;4.882;2023-09-07T03:00:43;0.00;;;0.00;;
26038;SDS011;13815;52.374;4.882;2023-09-07T03:03:10;0.00;;;0.00;;
26038;SDS011;13815;52.374;4.882;2023-09-07T03:05:37;0.00;;;0.00;;
26038;SDS011;13815;52.374;4.882;2023-09-07T03:08:03;0.00;;;0.00;;
26038;SDS011;13815;52.374;4.882;2023-09-07T03:10:29;0.00;;;0.00;;
26038;SDS011;13815;52.374;4.882;2023-09-07T03:12:54;0.00;;;0.00;;
26038;SDS011;13815;52.374;4.882;2023-09-07T03:15:20;0.00;;;0.00;;
26038;SDS011;13815;52.374;4.882;2023-09-07T03:17:45;0.00;;;0.00;;
26038;SDS011;13815;52.374;4.882;2023-09-07T03:20:11;0.00;;;0.00;;
26038;SDS011;13815;52.374;4.882;2023-09-07T03:22:39;0.00;;;0.00;;
26038;SDS011;13815;52.374;4.882;2023-09-07T03:25:06;0.00;;;0.00;;
26038;SDS011;13815;52.374;4.882;2023-09-07T03:27:32;0.00;;;0.00;;
26038;SDS011;13815;52.374;4.882;2023-09-07T03:29:58;0.00;;;0.00;;
26038;SDS011;13815;52.374;4.882;2023-09-07T03:32:23;0.00;;;0.00;;
26038;SDS011;13815;52.374;4.882;2023-09-07T03:34:51;0.00;;;0.00;;
26038;SDS011;13815;52.374;4.882;2023-09-07T03:37:17;0.00;;;0.00;;
26038;SDS011;13815;52.374;4.882;2023-09-07T03:39:42;0.00;;;0.00;;
26038;SDS011;13815;52.374;4.882;2023-09-07T03:42:08;0.00;;;0.00;;
26038;SDS011;13815;52.374;4.882;2023-09-07T03:44:33;0.00;;;0.00;;
26038;SDS011;13815;52.374;4.882;2023-09-07T03:47:00;0.00;;;0.00;;
26038;SDS011;13815;52.374;4.882;2023-09-07T03:49:25;0.00;;;0.00;;
26038;SDS011;13815;52.374;4.882;2023-09-07T03:51:51;0.00;;;0.00;;
26038;SDS011;13815;52.374;4.882;2023-09-07T03:54:16;0.00;;;0.00;;
26038;SDS011;13815;52.374;4.882;2023-09-07T03:56:41;0.00;;;0.00;;
26038;SDS011;13815;52.374;4.882;2023-09-07T03:59:07;0.00;;;0.00;;
26038;SDS011;13815;52.374;4.882;2023-09-07T04:01:32;0.00;;;0.00;;
26038;SDS011;13815;52.374;4.882;2023-09-07T04:03:58;0.00;;;0.00;;
26038;SDS011;13815;52.374;4.882;2023-09-07T04:06:23;0.00;;;0.00;;
26038;SDS011;13815;52.374;4.882;2023-09-07T04:08:49;0.00;;;0.00;;
26038;SDS011;13815;52.374;4.882;2023-09-07T04:11:14;0.00;;;0.00;;
26038;SDS011;13815;52.374;4.882;2023-09-07T04:13:39;0.00;;;0.00;;
26038;SDS011;13815;52.374;4.882;2023-09-07T04:16:05;0.00;;;0.00;;
26038;SDS011;13815;52.374;4.882;2023-09-07T04:18:30;0.00;;;0.00;;
26038;SDS011;13815;52.374;4.882;2023-09-07T04:21:05;0.00;;;0.00;;
26038;SDS011;13815;52.374;4.882;2023-09-07T04:23:31;0.00;;;0.00;;
26038;SDS011;13815;52.374;4.882;2023-09-07T04:26:09;0.00;;;0.00;;
26038;SDS011;13815;52.374;4.882;2023-09-07T04:28:36;0.00;;;0.00;;
26038;SDS011;13815;52.374;4.882;2023-09-07T04:31:02;0.00;;;0.00;;
26038;SDS011;13815;52.374;4.882;2023-09-07T04:33:31;0.00;;;0.00;;
26038;SDS011;13815;52.374;4.882;2023-09-07T04:36:06;0.00;;;0.00;;
26038;SDS011;13815;52.374;4.882;2023-09-07T04:38:35;0.00;;;0.00;;
26038;SDS011;13815;52.374;4.882;2023-09-07T04:43:32;0.00;;;0.00;;
26038;SDS011;13815;52.374;4.882;2023-09-07T04:45:57;0.00;;;0.00;;
26038;SDS011;13815;52.374;4.882;2023-09-07T04:48:23;0.00;;;0.00;;
26038;SDS011;13815;52.374;4.882;2023-09-07T04:50:48;0.00;;;0.00;;
26038;SDS011;13815;52.374;4.882;2023-09-07T04:53:13;0.00;;;0.00;;
26038;SDS011;13815;52.374;4.882;2023-09-07T04:55:39;0.00;;;0.00;;
26038;SDS011;13815;52.374;4.882;2023-09-07T04:58:05;0.00;;;0.00;;
26038;SDS011;13815;52.374;4.882;2023-09-07T05:00:31;0.00;;;0.00;;
26038;SDS011;13815;52.374;4.882;2023-09-07T05:02:56;0.00;;;0.00;;
26038;SDS011;13815;52.374;4.882;2023-09-07T05:05:22;0.00;;;0.00;;
26038;SDS011;13815;52.374;4.882;2023-09-07T05:07:47;0.00;;;0.00;;
26038;SDS011;13815;52.374;4.882;2023-09-07T05:10:12;0.00;;;0.00;;
26038;SDS011;13815;52.374;4.882;2023-09-07T05:12:38;0.00;;;0.00;;
26038;SDS011;13815;52.374;4.882;2023-09-07T05:15:04;0.00;;;0.00;;
26038;SDS011;13815;52.374;4.882;2023-09-07T05:17:32;0.00;;;0.00;;
26038;SDS011;13815;52.374;4.882;2023-09-07T05:19:57;0.00;;;0.00;;
26038;SDS011;13815;52.374;4.882;2023-09-07T05:22:22;0.00;;;0.00;;
26038;SDS011;13815;52.374;4.882;2023-09-07T05:24:48;0.00;;;0.00;;
26038;SDS011;13815;52.374;4.882;2023-09-07T05:27:13;0.00;;;0.00;;
26038;SDS011;13815;52.374;4.882;2023-09-07T05:29:39;0.00;;;0.00;;
26038;SDS011;13815;52.374;4.882;2023-09-07T05:32:04;0.00;;;0.00;;
26038;SDS011;13815;52.374;4.882;2023-09-07T05:34:31;0.00;;;0.00;;
26038;SDS011;13815;52.374;4.882;2023-09-07T05:36:56;0.00;;;0.00;;
26038;SDS011;13815;52.374;4.882;2023-09-07T05:39:21;0.00;;;0.00;;
26038;SDS011;13815;52.374;4.882;2023-09-07T05:41:49;0.00;;;0.00;;
26038;SDS011;13815;52.374;4.882;2023-09-07T05:44:14;0.00;;;0.00;;
26038;SDS011;13815;52.374;4.882;2023-09-07T05:46:40;0.00;;;0.00;;
26038;SDS011;13815;52.374;4.882;2023-09-07T05:49:15;0.00;;;0.00;;
26038;SDS011;13815;52.374;4.882;2023-09-07T05:51:40;0.00;;;0.00;;
26038;SDS011;13815;52.374;4.882;2023-09-07T05:54:06;0.00;;;0.00;;
26038;SDS011;13815;52.374;4.882;2023-09-07T05:56:31;0.00;;;0.00;;
26038;SDS011;13815;52.374;4.882;2023-09-07T05:58:58;0.00;;;0.00;;
26038;SDS011;13815;52.374;4.882;2023-09-07T06:01:27;0.00;;;0.00;;
26038;SDS011;13815;52.374;4.882;2023-09-07T06:03:53;0.00;;;0.00;;
26038;SDS011;13815;52.374;4.882;2023-09-07T06:06:18;0.00;;;0.00;;
26038;SDS011;13815;52.374;4.882;2023-09-07T06:08:44;0.00;;;0.00;;
26038;SDS011;13815;52.374;4.882;2023-09-07T06:11:09;0.00;;;0.00;;
26038;SDS011;13815;52.374;4.882;2023-09-07T06:13:35;0.00;;;0.00;;
26038;SDS011;13815;52.374;4.882;2023-09-07T06:16:00;0.00;;;0.00;;
26038;SDS011;13815;52.374;4.882;2023-09-07T06:18:26;0.00;;;0.00;;
26038;SDS011;13815;52.374;4.882;2023-09-07T06:20:51;0.00;;;0.00;;
26038;SDS011;13815;52.374;4.882;2023-09-07T06:23:17;0.00;;;0.00;;
26038;SDS011;13815;52.374;4.882;2023-09-07T06:25:43;0.00;;;0.00;;
26038;SDS011;13815;52.374;4.882;2023-09-07T06:28:08;0.00;;;0.00;;
26038;SDS011;13815;52.374;4.882;2023-09-07T06:30:34;0.00;;;0.00;;
26038;SDS011;13815;52.374;4.882;2023-09-07T06:33:00;0.00;;;0.00;;
26038;SDS011;13815;52.374;4.882;2023-09-07T06:35:26;0.00;;;0.00;;
26038;SDS011;13815;52.374;4.882;2023-09-07T06:37:51;0.00;;;0.00;;
26038;SDS011;13815;52.374;4.882;2023-09-07T06:40:17;0.00;;;0.00;;
26038;SDS011;13815;52.374;4.882;2023-09-07T06:42:43;0.00;;;0.00;;
26038;SDS011;13815;52.374;4.882;2023-09-07T06:45:08;0.00;;;0.00;;
26038;SDS011;13815;52.374;4.882;2023-09-07T06:47:34;0.00;;;0.00;;
26038;SDS011;13815;52.374;4.882;2023-09-07T06:50:01;0.00;;;0.00;;
26038;SDS011;13815;52.374;4.882;2023-09-07T06:52:27;0.00;;;0.00;;
26038;SDS011;13815;52.374;4.882;2023-09-07T06:54:52;0.00;;;0.00;;
26038;SDS011;13815;52.374;4.882;2023-09-07T06:57:18;0.00;;;0.00;;
26038;SDS011;13815;52.374;4.882;2023-09-07T06:59:44;0.00;;;0.00;;
26038;SDS011;13815;52.374;4.882;2023-09-07T07:02:10;0.00;;;0.00;;
26038;SDS011;13815;52.374;4.882;2023-09-07T07:04:35;0.00;;;0.00;;
26038;SDS011;13815;52.374;4.882;2023-09-07T07:07:01;0.00;;;0.00;;
26038;SDS011;13815;52.374;4.882;2023-09-07T07:09:29;0.00;;;0.00;;
26038;SDS011;13815;52.374;4.882;2023-09-07T07:11:57;0.00;;;0.00;;
26038;SDS011;13815;52.374;4.882;2023-09-07T07:14:24;0.00;;;0.00;;
26038;SDS011;13815;52.374;4.882;2023-09-07T07:16:49;0.00;;;0.00;;
26038;SDS011;13815;52.374;4.882;2023-09-07T07:19:15;0.00;;;0.00;;
26038;SDS011;13815;52.374;4.882;2023-09-07T07:21:40;0.00;;;0.00;;
26038;SDS011;13815;52.374;4.882;2023-09-07T07:24:06;0.00;;;0.00;;
26038;SDS011;13815;52.374;4.882;2023-09-07T07:26:32;0.00;;;0.00;;
26038;SDS011;13815;52.374;4.882;2023-09-07T07:28:58;0.00;;;0.00;;
26038;SDS011;13815;52.374;4.882;2023-09-07T07:31:23;0.00;;;0.00;;
26038;SDS011;13815;52.374;4.882;2023-09-07T07:33:49;0.00;;;0.00;;
26038;SDS011;13815;52.374;4.882;2023-09-07T07:36:15;0.10;;;0.10;;
26038;SDS011;13815;52.374;4.882;2023-09-07T07:38:40;0.10;;;0.10;;
26038;SDS011;13815;52.374;4.882;2023-09-07T07:41:08;0.00;;;0.00;;
26038;SDS011;13815;52.374;4.882;2023-09-07T07:43:34;0.10;;;0.10;;
26038;SDS011;13815;52.374;4.882;2023-09-07T07:45:59;0.10;;;0.10;;
26038;SDS011;13815;52.374;4.882;2023-09-07T07:48:28;0.10;;;0.10;;
26038;SDS011;13815;52.374;4.882;2023-09-07T07:50:54;0.10;;;0.10;;
26038;SDS011;13815;52.374;4.882;2023-09-07T07:53:20;0.10;;;0.10;;
26038;SDS011;13815;52.374;4.882;2023-09-07T07:55:46;0.20;;;0.20;;
26038;SDS011;13815;52.374;4.882;2023-09-07T07:58:21;0.20;;;0.20;;
26038;SDS011;13815;52.374;4.882;2023-09-07T08:00:46;0.20;;;0.20;;
26038;SDS011;13815;52.374;4.882;2023-09-07T08:03:13;0.20;;;0.20;;
26038;SDS011;13815;52.374;4.882;2023-09-07T08:05:38;0.20;;;0.20;;
26038;SDS011;13815;52.374;4.882;2023-09-07T08:08:05;0.20;;;0.20;;
26038;SDS011;13815;52.374;4.882;2023-09-07T08:10:33;0.30;;;0.30;;
26038;SDS011;13815;52.374;4.882;2023-09-07T08:12:59;0.30;;;0.30;;
26038;SDS011;13815;52.374;4.882;2023-09-07T08:15:25;0.40;;;0.40;;
26038;SDS011;13815;52.374;4.882;2023-09-07T08:17:51;0.50;;;0.50;;
26038;SDS011;13815;52.374;4.882;2023-09-07T08:20:16;0.70;;;0.70;;
26038;SDS011;13815;52.374;4.882;2023-09-07T08:22:42;0.60;;;0.60;;
26038;SDS011;13815;52.374;4.882;2023-09-07T08:25:09;0.60;;;0.60;;
26038;SDS011;13815;52.374;4.882;2023-09-07T08:27:35;0.60;;;0.60;;
26038;SDS011;13815;52.374;4.882;2023-09-07T08:30:00;0.70;;;0.70;;
26038;SDS011;13815;52.374;4.882;2023-09-07T08:32:26;0.80;;;0.80;;
26038;SDS011;13815;52.374;4.882;2023-09-07T08:34:52;1.00;;;1.00;;
26038;SDS011;13815;52.374;4.882;2023-09-07T08:37:21;1.10;;;1.10;;
26038;SDS011;13815;52.374;4.882;2023-09-07T08:39:48;1.20;;;1.20;;
26038;SDS011;13815;52.374;4.882;2023-09-07T08:42:13;1.80;;;1.80;;
26038;SDS011;13815;52.374;4.882;2023-09-07T08:44:39;2.22;;;2.22;;
26038;SDS011;13815;52.374;4.882;2023-09-07T08:47:06;3.00;;;3.00;;
26038;SDS011;13815;52.374;4.882;2023-09-07T08:49:32;4.40;;;4.30;;
26038;SDS011;13815;52.374;4.882;2023-09-07T08:51:58;5.80;;;5.70;;
26038;SDS011;13815;52.374;4.882;2023-09-07T08:54:25;6.57;;;6.38;;
26038;SDS011;13815;52.374;4.882;2023-09-07T08:56:53;7.43;;;7.22;;
26038;SDS011;13815;52.374;4.882;2023-09-07T08:59:18;8.10;;;7.90;;
26038;SDS011;13815;52.374;4.882;2023-09-07T09:01:44;9.40;;;9.10;;
26038;SDS011;13815;52.374;4.882;2023-09-07T09:04:09;10.18;;;9.88;;
26038;SDS011;13815;52.374;4.882;2023-09-07T09:06:34;12.40;;;11.90;;
26038;SDS011;13815;52.374;4.882;2023-09-07T09:09:00;12.75;;;12.25;;
26038;SDS011;13815;52.374;4.882;2023-09-07T09:11:25;14.20;;;13.60;;
26038;SDS011;13815;52.374;4.882;2023-09-07T09:13:53;15.32;;;14.55;;
26038;SDS011;13815;52.374;4.882;2023-09-07T09:16:19;14.85;;;14.15;;
26038;SDS011;13815;52.374;4.882;2023-09-07T09:18:48;17.38;;;16.17;;
26038;SDS011;13815;52.374;4.882;2023-09-07T09:21:21;16.15;;;15.25;;
26038;SDS011;13815;52.374;4.882;2023-09-07T09:23:49;16.38;;;15.48;;
26038;SDS011;13815;52.374;4.882;2023-09-07T09:26:16;16.85;;;15.82;;
26038;SDS011;13815;52.374;4.882;2023-09-07T09:28:42;17.67;;;16.48;;
26038;SDS011;13815;52.374;4.882;2023-09-07T09:31:10;17.55;;;16.35;;
26038;SDS011;13815;52.374;4.882;2023-09-07T09:33:37;19.55;;;17.85;;
26038;SDS011;13815;52.374;4.882;2023-09-07T09:36:03;20.70;;;18.60;;
26038;SDS011;13815;52.374;4.882;2023-09-07T09:38:30;21.38;;;19.08;;
26038;SDS011;13815;52.374;4.882;2023-09-07T09:40:57;23.83;;;20.02;;
26038;SDS011;13815;52.374;4.882;2023-09-07T09:43:23;24.27;;;20.05;;
26038;SDS011;13815;52.374;4.882;2023-09-07T09:45:50;24.17;;;19.83;;
26038;SDS011;13815;52.374;4.882;2023-09-07T09:48:21;25.65;;;20.70;;
26038;SDS011;13815;52.374;4.882;2023-09-07T09:50:47;26.60;;;20.73;;
26038;SDS011;13815;52.374;4.882;2023-09-07T09:53:19;23.92;;;19.67;;
26038;SDS011;13815;52.374;4.882;2023-09-07T09:55:46;24.98;;;20.17;;
26038;SDS011;13815;52.374;4.882;2023-09-07T09:58:17;26.02;;;20.48;;
26038;SDS011;13815;52.374;4.882;2023-09-07T10:00:43;27.75;;;20.83;;
26038;SDS011;13815;52.374;4.882;2023-09-07T10:05:39;28.75;;;21.40;;
26038;SDS011;13815;52.374;4.882;2023-09-07T10:08:09;29.85;;;21.30;;
26038;SDS011;13815;52.374;4.882;2023-09-07T10:10:37;29.00;;;20.90;;
26038;SDS011;13815;52.374;4.882;2023-09-07T10:13:03;28.23;;;21.02;;
26038;SDS011;13815;52.374;4.882;2023-09-07T10:15:28;28.35;;;20.95;;
26038;SDS011;13815;52.374;4.882;2023-09-07T10:18:04;31.23;;;21.10;;
26038;SDS011;13815;52.374;4.882;2023-09-07T10:23:16;30.77;;;20.80;;
26038;SDS011;13815;52.374;4.882;2023-09-07T10:25:41;31.13;;;20.95;;
26038;SDS011;13815;52.374;4.882;2023-09-07T10:28:23;32.20;;;21.23;;
26038;SDS011;13815;52.374;4.882;2023-09-07T10:31:02;33.35;;;21.73;;
26038;SDS011;13815;52.374;4.882;2023-09-07T10:33:32;34.88;;;22.10;;
26038;SDS011;13815;52.374;4.882;2023-09-07T10:35:58;34.38;;;22.25;;
26038;SDS011;13815;52.374;4.882;2023-09-07T10:38:24;35.45;;;22.50;;
26038;SDS011;13815;52.374;4.882;2023-09-07T10:40:57;35.13;;;22.05;;
26038;SDS011;13815;52.374;4.882;2023-09-07T10:43:24;34.40;;;22.10;;
26038;SDS011;13815;52.374;4.882;2023-09-07T10:45:50;35.22;;;22.17;;
26038;SDS011;13815;52.374;4.882;2023-09-07T10:48:16;35.72;;;22.35;;
26038;SDS011;13815;52.374;4.882;2023-09-07T10:50:45;35.03;;;22.20;;
26038;SDS011;13815;52.374;4.882;2023-09-07T10:53:14;35.17;;;22.42;;
26038;SDS011;13815;52.374;4.882;2023-09-07T10:55:40;34.83;;;22.70;;
26038;SDS011;13815;52.374;4.882;2023-09-07T10:58:08;33.58;;;22.35;;
26038;SDS011;13815;52.374;4.882;2023-09-07T11:00:35;35.45;;;22.70;;
26038;SDS011;13815;52.374;4.882;2023-09-07T11:03:06;36.75;;;22.63;;
26038;SDS011;13815;52.374;4.882;2023-09-07T11:08:01;36.25;;;22.77;;
26038;SDS011;13815;52.374;4.882;2023-09-07T11:10:26;37.50;;;23.15;;
26038;SDS011;13815;52.374;4.882;2023-09-07T11:12:52;37.33;;;23.27;;
26038;SDS011;13815;52.374;4.882;2023-09-07T11:15:18;37.95;;;23.17;;
26038;SDS011;13815;52.374;4.882;2023-09-07T11:17:44;39.55;;;23.23;;
26038;SDS011;13815;52.374;4.882;2023-09-07T11:20:09;40.20;;;23.77;;
26038;SDS011;13815;52.374;4.882;2023-09-07T11:22:35;39.13;;;23.63;;
26038;SDS011;13815;52.374;4.882;2023-09-07T11:25:04;39.03;;;23.67;;
26038;SDS011;13815;52.374;4.882;2023-09-07T11:27:30;37.67;;;23.13;;
26038;SDS011;13815;52.374;4.882;2023-09-07T11:29:56;39.25;;;23.48;;
26038;SDS011;13815;52.374;4.882;2023-09-07T11:32:22;39.30;;;23.65;;
26038;SDS011;13815;52.374;4.882;2023-09-07T11:34:49;39.70;;;23.92;;
26038;SDS011;13815;52.374;4.882;2023-09-07T11:37:15;39.50;;;24.17;;
26038;SDS011;13815;52.374;4.882;2023-09-07T11:39:41;40.05;;;23.80;;
26038;SDS011;13815;52.374;4.882;2023-09-07T11:42:06;41.17;;;24.52;;
26038;SDS011;13815;52.374;4.882;2023-09-07T11:44:31;44.30;;;26.67;;
26038;SDS011;13815;52.374;4.882;2023-09-07T11:46:57;43.63;;;26.67;;
26038;SDS011;13815;52.374;4.882;2023-09-07T11:49:22;43.08;;;25.83;;
26038;SDS011;13815;52.374;4.882;2023-09-07T11:51:48;42.50;;;25.85;;
26038;SDS011;13815;52.374;4.882;2023-09-07T11:54:14;41.35;;;25.60;;
26038;SDS011;13815;52.374;4.882;2023-09-07T11:56:39;43.03;;;26.63;;
26038;SDS011;13815;52.374;4.882;2023-09-07T11:59:08;43.05;;;26.50;;
26038;SDS011;13815;52.374;4.882;2023-09-07T12:01:34;41.75;;;25.25;;
26038;SDS011;13815;52.374;4.882;2023-09-07T12:04:00;41.65;;;25.70;;
26038;SDS011;13815;52.374;4.882;2023-09-07T12:06:25;42.28;;;26.42;;
26038;SDS011;13815;52.374;4.882;2023-09-07T12:08:58;42.22;;;26.95;;
26038;SDS011;13815;52.374;4.882;2023-09-07T12:11:25;42.60;;;26.70;;
26038;SDS011;13815;52.374;4.882;2023-09-07T12:13:50;42.83;;;26.83;;
26038;SDS011;13815;52.374;4.882;2023-09-07T12:16:16;43.60;;;27.27;;
26038;SDS011;13815;52.374;4.882;2023-09-07T12:18:41;44.63;;;28.55;;
26038;SDS011;13815;52.374;4.882;2023-09-07T12:21:06;41.60;;;26.52;;
26038;SDS011;13815;52.374;4.882;2023-09-07T12:23:33;42.70;;;27.70;;
26038;SDS011;13815;52.374;4.882;2023-09-07T12:25:58;42.22;;;27.33;;
26038;SDS011;13815;52.374;4.882;2023-09-07T12:28:25;42.95;;;27.45;;
26038;SDS011;13815;52.374;4.882;2023-09-07T12:30:51;44.67;;;28.05;;
26038;SDS011;13815;52.374;4.882;2023-09-07T12:33:16;43.42;;;27.63;;
26038;SDS011;13815;52.374;4.882;2023-09-07T12:35:42;42.55;;;26.83;;
26038;SDS011;13815;52.374;4.882;2023-09-07T12:38:08;42.17;;;26.48;;
26038;SDS011;13815;52.374;4.882;2023-09-07T12:40:35;43.10;;;27.08;;
26038;SDS011;13815;52.374;4.882;2023-09-07T12:43:01;41.65;;;25.38;;
26038;SDS011;13815;52.374;4.882;2023-09-07T12:45:27;42.63;;;26.20;;
26038;SDS011;13815;52.374;4.882;2023-09-07T12:47:52;41.70;;;25.08;;
26038;SDS011;13815;52.374;4.882;2023-09-07T12:50:18;42.55;;;25.95;;
26038;SDS011;13815;52.374;4.882;2023-09-07T12:52:43;43.17;;;25.88;;
26038;SDS011;13815;52.374;4.882;2023-09-07T12:55:08;44.47;;;26.85;;
26038;SDS011;13815;52.374;4.882;2023-09-07T12:57:34;43.13;;;26.60;;
26038;SDS011;13815;52.374;4.882;2023-09-07T13:00:01;43.58;;;27.05;;
26038;SDS011;13815;52.374;4.882;2023-09-07T13:02:28;43.72;;;27.05;;
26038;SDS011;13815;52.374;4.882;2023-09-07T13:04:54;43.50;;;26.58;;
26038;SDS011;13815;52.374;4.882;2023-09-07T13:07:20;42.63;;;25.98;;
26038;SDS011;13815;52.374;4.882;2023-09-07T13:09:46;42.53;;;26.10;;
26038;SDS011;13815;52.374;4.882;2023-09-07T13:12:12;43.25;;;26.08;;
26038;SDS011;13815;52.374;4.882;2023-09-07T13:14:38;44.10;;;26.58;;
26038;SDS011;13815;52.374;4.882;2023-09-07T13:17:03;44.85;;;27.70;;
26038;SDS011;13815;52.374;4.882;2023-09-07T13:19:29;44.58;;;27.27;;
26038;SDS011;13815;52.374;4.882;2023-09-07T13:21:54;45.88;;;28.13;;
26038;SDS011;13815;52.374;4.882;2023-09-07T13:24:19;43.60;;;26.25;;
26038;SDS011;13815;52.374;4.882;2023-09-07T13:26:46;44.78;;;26.25;;
26038;SDS011;13815;52.374;4.882;2023-09-07T13:29:12;44.25;;;26.33;;
26038;SDS011;13815;52.374;4.882;2023-09-07T13:31:37;44.92;;;26.65;;
26038;SDS011;13815;52.374;4.882;2023-09-07T13:34:02;44.03;;;26.17;;
26038;SDS011;13815;52.374;4.882;2023-09-07T13:36:28;45.80;;;27.08;;
26038;SDS011;13815;52.374;4.882;2023-09-07T13:38:54;45.25;;;26.98;;
26038;SDS011;13815;52.374;4.882;2023-09-07T13:41:22;46.65;;;27.92;;
26038;SDS011;13815;52.374;4.882;2023-09-07T13:43:48;45.72;;;26.85;;
26038;SDS011;13815;52.374;4.882;2023-09-07T13:46:13;46.28;;;27.35;;
26038;SDS011;13815;52.374;4.882;2023-09-07T13:48:38;45.38;;;28.02;;
26038;SDS011;13815;52.374;4.882;2023-09-07T13:51:04;45.40;;;27.73;;
26038;SDS011;13815;52.374;4.882;2023-09-07T13:53:31;44.80;;;27.30;;
26038;SDS011;13815;52.374;4.882;2023-09-07T13:55:56;44.25;;;27.15;;
26038;SDS011;13815;52.374;4.882;2023-09-07T13:58:21;45.63;;;28.08;;
26038;SDS011;13815;52.374;4.882;2023-09-07T14:00:47;45.50;;;27.38;;
26038;SDS011;13815;52.374;4.882;2023-09-07T14:03:12;43.53;;;26.55;;
26038;SDS011;13815;52.374;4.882;2023-09-07T14:05:38;44.05;;;26.70;;
26038;SDS011;13815;52.374;4.882;2023-09-07T14:08:04;45.20;;;27.67;;
26038;SDS011;13815;52.374;4.882;2023-09-07T14:10:29;44.05;;;26.60;;
26038;SDS011;13815;52.374;4.882;2023-09-07T14:12:54;44.55;;;27.10;;
26038;SDS011;13815;52.374;4.882;2023-09-07T14:15:20;43.08;;;25.98;;
26038;SDS011;13815;52.374;4.882;2023-09-07T14:17:45;45.53;;;27.50;;
26038;SDS011;13815;52.374;4.882;2023-09-07T14:20:11;45.72;;;28.10;;
26038;SDS011;13815;52.374;4.882;2023-09-07T14:22:37;46.10;;;28.60;;
26038;SDS011;13815;52.374;4.882;2023-09-07T14:25:02;43.95;;;27.23;;
26038;SDS011;13815;52.374;4.882;2023-09-07T14:27:28;44.97;;;28.13;;
26038;SDS011;13815;52.374;4.882;2023-09-07T14:29:53;46.47;;;28.50;;
26038;SDS011;13815;52.374;4.882;2023-09-07T14:32:19;46.03;;;28.67;;
26038;SDS011;13815;52.374;4.882;2023-09-07T14:34:44;45.60;;;27.65;;
26038;SDS011;13815;52.374;4.882;2023-09-07T14:37:09;45.83;;;28.13;;
26038;SDS011;13815;52.374;4.882;2023-09-07T14:39:35;45.72;;;27.65;;
26038;SDS011;13815;52.374;4.882;2023-09-07T14:42:01;46.42;;;28.13;;